Time;durP1;ratioP1;P1;durP2;ratioP2;P2;SDS_P1;SDS_P2;PMS_P1;PMS_P2;Temp;Humidity;BMP_temperature;BMP_pressure;BME280_temperature;BME280_humidity;BME280_pressure;Samples;Min_cycle;Max_cycle;Signal;HPM_P1;HPM_P2
2022/02/01 00:03:45;;;;;;;10.20;4.57;;;4.60;62.90;;;;;;5065643;28;20035;-58
2022/02/01 00:06:49;;;;;;;7.65;3.83;;;4.60;62.80;;;;;;5055465;28;20120;-60
2022/02/01 00:12:08;;;;;;;4.38;3.50;;;4.60;62.80;;;;;;5061025;28;20474;-59
2022/02/01 00:36:06;;;;;;;7.55;4.95;;;4.50;63.10;;;;;;5060834;28;20024;-59
2022/02/01 00:38:55;;;;;;;7.38;5.38;;;4.60;63.20;;;;;;5059018;28;20037;-60
2022/02/01 00:41:27;;;;;;;7.63;3.45;;;4.60;63.10;;;;;;5062406;28;20107;-60
2022/02/01 00:43:53;;;;;;;5.15;3.70;;;4.50;62.90;;;;;;5062208;28;20028;-60
2022/02/01 00:46:18;;;;;;;6.30;4.75;;;4.50;63.20;;;;;;5056756;28;20158;-59
2022/02/01 00:48:44;;;;;;;7.00;3.95;;;4.50;63.10;;;;;;5044707;28;20032;-60
2022/02/01 00:51:13;;;;;;;6.00;3.45;;;4.50;63.00;;;;;;5056542;28;20025;-60
2022/02/01 00:53:42;;;;;;;6.50;4.70;;;4.50;63.20;;;;;;5070047;28;20111;-60
2022/02/01 00:56:09;;;;;;;8.02;4.90;;;4.50;63.00;;;;;;5069415;28;20032;-60
2022/02/01 00:58:35;;;;;;;6.10;3.47;;;4.60;62.70;;;;;;5057057;28;20383;-60
2022/02/01 01:01:01;;;;;;;5.88;3.72;;;4.50;62.70;;;;;;5072649;28;20075;-60
2022/02/01 01:03:27;;;;;;;6.05;3.35;;;4.50;62.80;;;;;;5063084;28;20060;-60
2022/02/01 01:05:53;;;;;;;8.95;5.35;;;4.50;63.20;;;;;;5052815;28;20021;-59
2022/02/01 01:08:20;;;;;;;7.57;3.95;;;4.50;63.10;;;;;;5052914;28;20029;-59
2022/02/01 01:10:46;;;;;;;7.40;4.78;;;4.50;63.10;;;;;;5062293;28;20021;-59
2022/02/01 01:19:02;;;;;;;6.47;4.00;;;4.50;62.80;;;;;;5063254;28;20480;-60
2022/02/01 01:38:48;;;;;;;5.80;3.92;;;4.50;62.80;;;;;;5049559;28;20036;-59
2022/02/01 01:43:36;;;;;;;6.22;4.00;;;4.50;62.40;;;;;;5025742;28;20119;-60
2022/02/01 01:46:30;;;;;;;11.05;5.43;;;4.50;62.40;;;;;;5056920;28;20033;-59
2022/02/01 01:54:26;;;;;;;6.90;5.13;;;4.50;62.50;;;;;;5049274;28;20055;-59
2022/02/01 01:56:54;;;;;;;5.15;3.58;;;4.50;62.70;;;;;;5044709;28;20025;-59
2022/02/01 01:59:21;;;;;;;8.18;5.13;;;4.40;62.60;;;;;;5055997;28;20024;-60
2022/02/01 02:01:47;;;;;;;6.95;3.90;;;4.50;62.90;;;;;;5057345;28;20021;-60
2022/02/01 02:04:13;;;;;;;7.65;4.10;;;4.40;62.80;;;;;;5065107;28;20524;-60
2022/02/01 02:06:39;;;;;;;10.48;5.80;;;4.40;63.10;;;;;;5046001;28;20505;-59
2022/02/01 02:09:10;;;;;;;8.68;5.28;;;4.40;63.00;;;;;;5056816;28;20078;-60
2022/02/01 02:11:53;;;;;;;9.25;3.90;;;4.40;62.70;;;;;;5050327;28;20028;-59
2022/02/01 02:14:23;;;;;;;7.45;4.82;;;4.30;62.60;;;;;;5042642;28;20064;-59
2022/02/01 02:16:53;;;;;;;6.40;4.25;;;4.30;62.60;;;;;;5058637;28;20028;-60
2022/02/01 02:19:21;;;;;;;6.80;5.10;;;4.30;62.50;;;;;;5064147;28;20028;-60
2022/02/01 02:21:58;;;;;;;5.03;3.75;;;4.30;62.50;;;;;;5045404;28;20108;-60
2022/02/01 02:24:28;;;;;;;6.55;4.10;;;4.30;62.50;;;;;;5065878;28;20040;-61
2022/02/01 02:26:55;;;;;;;8.35;5.47;;;4.30;62.70;;;;;;5066354;28;20464;-60
2022/02/01 02:29:21;;;;;;;5.93;4.30;;;4.30;62.90;;;;;;5062750;28;20111;-59
2022/02/01 02:31:47;;;;;;;10.60;5.25;;;4.30;62.80;;;;;;5061039;28;20096;-58
2022/02/01 02:34:16;;;;;;;8.40;3.72;;;4.30;62.80;;;;;;5069268;28;20059;-59
2022/02/01 02:36:57;;;;;;;6.82;4.15;;;4.20;63.00;;;;;;5073515;28;20036;-59
2022/02/01 02:47:05;;;;;;;9.27;4.40;;;4.00;63.90;;;;;;5066556;28;20428;-59
2022/02/01 02:49:31;;;;;;;7.65;4.43;;;3.90;63.50;;;;;;5065218;28;20100;-59
2022/02/01 02:51:56;;;;;;;9.73;5.80;;;3.90;63.70;;;;;;5071462;28;20060;-59
2022/02/01 02:54:25;;;;;;;8.48;6.50;;;3.90;63.60;;;;;;5074951;28;20111;-59
2022/02/01 02:56:54;;;;;;;6.95;4.47;;;3.90;63.50;;;;;;5058267;28;20056;-58
2022/02/01 02:59:22;;;;;;;6.07;3.95;;;3.80;63.40;;;;;;5064499;28;20389;-58
2022/02/01 03:01:48;;;;;;;7.45;5.90;;;3.70;63.70;;;;;;5061935;28;20511;-58
2022/02/01 03:04:19;;;;;;;6.28;4.15;;;3.70;63.70;;;;;;5072752;28;20020;-60
2022/02/01 03:06:45;;;;;;;6.57;4.20;;;3.60;63.80;;;;;;5069180;28;20032;-59
2022/02/01 03:09:12;;;;;;;12.38;6.72;;;3.50;63.80;;;;;;5056631;28;20083;-59
2022/02/01 03:11:39;;;;;;;10.40;4.85;;;3.50;64.20;;;;;;5063772;28;20464;-59
2022/02/01 03:14:16;;;;;;;7.70;4.85;;;3.50;64.00;;;;;;5051871;28;20057;-59
2022/02/01 03:21:55;;;;;;;8.55;4.35;;;3.40;64.20;;;;;;5067706;28;20472;-59
2022/02/01 03:24:21;;;;;;;8.40;5.05;;;3.40;64.20;;;;;;5070204;28;20107;-59
2022/02/01 03:26:46;;;;;;;11.45;8.07;;;3.30;64.50;;;;;;5056405;28;20059;-59
2022/02/01 03:29:12;;;;;;;13.45;7.97;;;3.40;64.40;;;;;;5049482;28;20020;-59
2022/02/01 03:31:37;;;;;;;9.68;5.03;;;3.40;64.40;;;;;;5046602;28;20071;-59
2022/02/01 03:34:03;;;;;;;8.77;5.15;;;3.30;64.20;;;;;;5066329;28;20067;-59
2022/02/01 03:36:29;;;;;;;13.68;9.15;;;3.30;64.50;;;;;;5056820;28;20020;-59
2022/02/01 03:38:55;;;;;;;11.85;6.57;;;3.30;64.70;;;;;;5072298;28;20017;-59
2022/02/01 03:41:21;;;;;;;14.73;7.38;;;3.20;64.40;;;;;;5072698;28;20021;-59
2022/02/01 03:43:46;;;;;;;10.77;5.80;;;3.20;64.60;;;;;;5071954;28;20029;-59
2022/02/01 03:46:12;;;;;;;15.23;9.00;;;3.10;64.70;;;;;;5045564;28;20022;-58
2022/02/01 03:48:38;;;;;;;11.45;5.32;;;3.10;64.90;;;;;;5058112;28;20052;-60
2022/02/01 03:51:03;;;;;;;8.73;5.22;;;3.00;64.70;;;;;;5073787;28;20048;-60
2022/02/01 03:53:29;;;;;;;10.35;7.40;;;3.00;64.90;;;;;;5074118;28;20031;-59
2022/02/01 03:55:55;;;;;;;9.07;5.28;;;3.00;64.90;;;;;;5059448;28;20541;-59
2022/02/01 03:58:20;;;;;;;8.90;6.85;;;3.00;64.70;;;;;;5073728;28;20031;-58
2022/02/01 04:00:46;;;;;;;10.52;5.32;;;2.90;64.80;;;;;;5067371;28;20031;-58
2022/02/01 04:03:11;;;;;;;8.80;4.50;;;2.90;64.80;;;;;;5061953;28;20028;-59
2022/02/01 04:05:37;;;;;;;9.52;4.97;;;2.90;65.00;;;;;;5057615;28;20138;-59
2022/02/01 04:08:03;;;;;;;9.57;4.28;;;2.80;65.00;;;;;;5060124;28;20028;-59
2022/02/01 04:10:29;;;;;;;10.88;4.28;;;2.80;65.00;;;;;;5067076;28;20033;-59
2022/02/01 04:12:56;;;;;;;9.00;5.20;;;2.80;65.20;;;;;;5072238;28;20024;-59
2022/02/01 04:15:25;;;;;;;8.48;4.97;;;2.80;65.20;;;;;;5048691;28;20481;-59
2022/02/01 04:17:52;;;;;;;10.95;6.88;;;2.80;65.30;;;;;;5069172;28;20032;-59
2022/02/01 04:20:18;;;;;;;8.30;4.85;;;2.80;65.20;;;;;;5060724;28;20040;-59
2022/02/01 04:22:43;;;;;;;7.53;4.47;;;2.80;65.10;;;;;;5058039;28;20085;-59
2022/02/01 04:25:09;;;;;;;9.73;6.22;;;2.80;65.10;;;;;;5059032;28;20096;-59
2022/02/01 04:27:35;;;;;;;12.80;6.88;;;2.80;65.10;;;;;;5066936;28;20020;-59
2022/02/01 04:30:27;;;;;;;10.10;6.50;;;2.90;64.80;;;;;;5062602;28;20029;-59
2022/02/01 04:32:54;;;;;;;;;;;2.90;64.70;;;;;;5053177;28;20514;-59
2022/02/01 04:35:22;;;;;;;9.30;6.57;;;2.80;64.80;;;;;;5062111;28;20303;-59
2022/02/01 04:37:48;;;;;;;6.93;4.15;;;2.80;64.90;;;;;;5049382;28;20543;-59
2022/02/01 04:40:16;;;;;;;9.95;6.50;;;2.80;65.00;;;;;;5066590;28;20025;-59
2022/02/01 04:42:43;;;;;;;8.60;5.07;;;2.80;65.10;;;;;;5053528;28;20037;-59
2022/02/01 04:45:13;;;;;;;9.38;5.18;;;2.80;65.00;;;;;;5054888;28;20032;-58
2022/02/01 04:47:38;;;;;;;8.13;5.00;;;2.70;65.20;;;;;;5058433;28;20135;-59
2022/02/01 04:50:12;;;;;;;9.63;4.97;;;2.70;65.40;;;;;;5060939;28;20068;-59
2022/02/01 04:52:44;;;;;;;8.32;5.22;;;2.70;65.50;;;;;;5050364;28;20064;-59
2022/02/01 04:55:10;;;;;;;15.13;10.20;;;2.60;65.50;;;;;;5056249;28;20538;-59
2022/02/01 04:57:41;;;;;;;14.82;10.55;;;2.70;65.70;;;;;;5062470;28;20086;-58
2022/02/01 05:00:08;;;;;;;10.82;7.00;;;2.70;65.60;;;;;;5058319;28;20543;-59
2022/02/01 05:02:33;;;;;;;17.83;10.45;;;2.70;65.50;;;;;;5050821;28;20078;-58
2022/02/01 05:04:59;;;;;;;9.40;6.18;;;2.70;65.80;;;;;;5059915;28;20025;-59
2022/02/01 05:07:24;;;;;;;13.15;9.75;;;2.60;65.60;;;;;;5053051;28;20103;-59
2022/02/01 05:09:51;;;;;;;9.55;6.60;;;2.60;65.90;;;;;;5059434;28;20395;-59
2022/02/01 05:12:18;;;;;;;18.35;9.88;;;2.60;65.90;;;;;;5047717;28;20029;-59
2022/02/01 05:14:43;;;;;;;14.02;6.35;;;2.60;66.00;;;;;;5070169;28;20054;-59
2022/02/01 05:17:09;;;;;;;12.93;6.15;;;2.60;65.90;;;;;;5052814;28;20029;-59
2022/02/01 05:22:07;;;;;;;11.30;6.03;;;2.60;66.20;;;;;;5064409;28;20037;-58
2022/02/01 05:24:36;;;;;;;12.43;8.70;;;2.60;66.10;;;;;;5063857;28;20017;-59
2022/02/01 05:27:05;;;;;;;14.77;6.80;;;2.60;66.20;;;;;;5048454;28;20036;-60
2022/02/01 05:29:30;;;;;;;9.55;5.57;;;2.60;66.10;;;;;;5054032;28;20101;-59
2022/02/01 05:31:58;;;;;;;11.57;6.20;;;2.60;66.30;;;;;;5062866;28;20476;-59
2022/02/01 05:34:24;;;;;;;10.05;6.20;;;2.60;66.30;;;;;;5065801;28;20021;-59
2022/02/01 05:36:49;;;;;;;9.63;5.50;;;2.60;66.70;;;;;;5072129;28;20027;-59
2022/02/01 05:39:24;;;;;;;13.02;9.27;;;2.60;66.50;;;;;;5064417;28;20023;-59
2022/02/01 05:41:51;;;;;;;9.00;6.15;;;2.70;66.50;;;;;;5067445;28;20031;-59
2022/02/01 05:44:16;;;;;;;8.18;5.22;;;2.70;66.90;;;;;;5062950;28;20100;-59
2022/02/01 05:46:42;;;;;;;7.63;5.00;;;2.70;66.40;;;;;;5056068;28;20151;-59
2022/02/01 05:49:08;;;;;;;8.30;4.95;;;2.60;66.40;;;;;;5069207;28;20674;-58
2022/02/01 05:51:34;;;;;;;15.55;9.68;;;2.70;66.40;;;;;;5070997;28;20024;-59
2022/02/01 05:54:01;;;;;;;13.10;6.63;;;2.70;66.60;;;;;;5062704;28;20489;-59
2022/02/01 05:56:27;;;;;;;11.68;8.55;;;2.70;66.40;;;;;;5047094;28;20053;-60
2022/02/01 05:58:53;;;;;;;13.07;8.63;;;2.70;66.50;;;;;;5049483;28;20049;-61
2022/02/01 06:01:18;;;;;;;10.45;6.00;;;2.80;66.20;;;;;;5046453;28;20037;-60
2022/02/01 06:03:45;;;;;;;11.27;7.93;;;2.70;65.90;;;;;;5053423;28;20036;-62
2022/02/01 06:06:10;;;;;;;10.23;5.70;;;2.70;66.10;;;;;;5051247;28;20056;-62
2022/02/01 06:08:36;;;;;;;6.68;4.32;;;2.60;66.00;;;;;;5055384;28;20095;-61
2022/02/01 06:11:02;;;;;;;10.27;6.65;;;2.60;66.20;;;;;;5070676;28;20396;-61
2022/02/01 06:13:28;;;;;;;7.90;4.65;;;2.60;66.50;;;;;;5071939;28;20036;-61
2022/02/01 06:15:54;;;;;;;10.23;4.57;;;2.50;66.50;;;;;;5049984;28;20079;-59
2022/02/01 06:18:20;;;;;;;8.38;4.90;;;2.40;66.70;;;;;;5046596;28;20025;-58
2022/02/01 06:20:46;;;;;;;9.48;5.00;;;2.40;67.00;;;;;;5049668;28;20103;-57
2022/02/01 06:23:16;;;;;;;9.85;7.20;;;2.40;67.10;;;;;;5047566;28;20111;-58
2022/02/01 06:28:08;;;;;;;6.93;4.60;;;2.40;67.10;;;;;;5057844;28;20515;-58
2022/02/01 06:30:34;;;;;;;9.85;5.15;;;2.40;67.20;;;;;;5047757;28;20036;-58
2022/02/01 06:32:59;;;;;;;12.95;8.10;;;2.50;67.30;;;;;;5044057;28;20021;-58
2022/02/01 06:35:26;;;;;;;8.32;5.18;;;2.50;67.50;;;;;;5051300;28;20395;-58
2022/02/01 06:37:51;;;;;;;11.07;5.93;;;2.50;67.30;;;;;;5048785;28;20051;-59
2022/02/01 06:40:18;;;;;;;16.63;7.25;;;2.50;67.20;;;;;;5042268;28;20037;-58
2022/02/01 06:42:45;;;;;;;15.13;9.45;;;2.50;67.30;;;;;;5038185;28;20634;-59
2022/02/01 06:45:11;;;;;;;13.70;6.80;;;2.60;67.30;;;;;;5041959;28;20029;-58
2022/02/01 06:47:36;;;;;;;11.63;7.40;;;2.70;67.10;;;;;;5041054;28;20098;-59
2022/02/01 06:50:03;;;;;;;13.32;6.22;;;2.70;67.10;;;;;;5034117;28;20017;-59
2022/02/01 06:52:30;;;;;;;14.52;10.77;;;2.70;67.20;;;;;;5034302;28;20029;-58
2022/02/01 06:55:00;;;;;;;11.55;7.43;;;2.80;67.10;;;;;;5036809;28;20035;-58
2022/02/01 06:57:26;;;;;;;12.73;6.25;;;2.90;66.90;;;;;;5032119;28;20048;-59
2022/02/01 06:59:52;;;;;;;14.95;10.27;;;2.90;66.90;;;;;;5035833;28;20044;-59
2022/02/01 07:02:18;;;;;;;12.95;6.88;;;3.00;66.90;;;;;;5030633;28;20029;-58
2022/02/01 07:04:43;;;;;;;11.88;6.00;;;3.00;66.70;;;;;;5031837;28;20033;-59
2022/02/01 07:07:09;;;;;;;13.48;5.90;;;3.00;66.80;;;;;;5030953;28;20028;-61
2022/02/01 07:09:36;;;;;;;13.95;9.05;;;3.10;66.90;;;;;;5028641;28;20024;-57
2022/02/01 07:12:02;;;;;;;12.15;6.57;;;3.20;67.40;;;;;;5031021;28;20033;-59
2022/02/01 07:14:28;;;;;;;15.23;8.90;;;3.20;66.60;;;;;;5032574;28;20044;-59
2022/02/01 07:16:54;;;;;;;19.15;7.50;;;3.30;66.60;;;;;;5040043;28;20018;-58
2022/02/01 07:19:20;;;;;;;16.13;9.07;;;3.30;66.50;;;;;;5038334;28;20026;-59
2022/02/01 07:21:45;;;;;;;14.32;6.72;;;3.40;66.60;;;;;;5043108;28;20358;-59
2022/02/01 07:24:16;;;;;;;9.18;5.95;;;3.40;66.30;;;;;;5040294;28;20030;-59
2022/02/01 07:26:53;;;;;;;13.75;9.02;;;3.50;66.40;;;;;;5027196;28;20049;-60
2022/02/01 07:29:19;;;;;;;15.38;10.50;;;3.60;66.30;;;;;;5040203;28;20033;-59
2022/02/01 07:31:44;;;;;;;18.77;10.48;;;3.70;65.90;;;;;;5041203;28;20019;-59
2022/02/01 07:34:11;;;;;;;13.35;6.72;;;3.80;65.50;;;;;;5040994;28;20034;-59
2022/02/01 07:36:37;;;;;;;13.57;9.27;;;3.90;65.50;;;;;;5039526;28;20029;-61
2022/02/01 07:39:06;;;;;;;11.07;6.57;;;3.90;65.40;;;;;;5039840;28;20033;-60
2022/02/01 07:41:31;;;;;;;11.25;5.75;;;4.00;65.40;;;;;;5038247;28;20167;-60
2022/02/01 07:43:57;;;;;;;12.60;9.10;;;4.00;65.50;;;;;;5042798;28;20769;-60
2022/02/01 07:46:23;;;;;;;16.80;11.10;;;4.10;65.40;;;;;;5032845;28;20041;-60
2022/02/01 07:48:49;;;;;;;13.38;7.55;;;4.20;64.80;;;;;;5036937;28;20028;-60
2022/02/01 07:51:14;;;;;;;13.52;7.40;;;4.20;64.80;;;;;;5041356;28;20086;-59
2022/02/01 07:53:40;;;;;;;18.05;9.98;;;4.20;65.00;;;;;;5038279;28;20604;-58
2022/02/01 07:56:06;;;;;;;14.45;10.57;;;4.30;64.80;;;;;;5035942;28;20030;-61
2022/02/01 07:58:31;;;;;;;11.85;6.88;;;4.40;64.40;;;;;;5031309;28;20017;-59
2022/02/01 08:00:57;;;;;;;16.85;9.05;;;4.40;64.40;;;;;;5021326;28;20029;-60
2022/02/01 08:03:23;;;;;;;14.40;6.95;;;4.50;64.30;;;;;;5024488;28;20318;-60
2022/02/01 08:05:48;;;;;;;13.38;9.75;;;4.50;64.20;;;;;;5029592;28;20083;-60
2022/02/01 08:08:14;;;;;;;15.55;10.73;;;4.60;64.30;;;;;;5027466;28;20056;-60
2022/02/01 08:10:51;;;;;;;15.68;10.48;;;4.60;63.80;;;;;;5021750;28;20029;-59
2022/02/01 08:21:08;;;;;;;13.70;6.93;;;4.60;63.80;;;;;;5025623;28;20484;-60
2022/02/01 08:23:35;;;;;;;12.02;7.82;;;4.70;63.90;;;;;;5021175;28;20519;-60
2022/02/01 08:26:01;;;;;;;12.52;6.38;;;4.70;63.70;;;;;;5014180;28;20120;-60
2022/02/01 08:28:27;;;;;;;14.48;8.57;;;4.70;63.50;;;;;;5014749;28;20071;-60
2022/02/01 08:30:54;;;;;;;10.13;8.27;;;4.80;63.30;;;;;;5025135;28;20136;-59
2022/02/01 08:33:22;;;;;;;10.55;5.88;;;4.80;62.90;;;;;;5027243;28;20041;-58
2022/02/01 08:35:48;;;;;;;12.77;8.68;;;4.80;62.90;;;;;;5020433;28;20479;-60
2022/02/01 08:38:14;;;;;;;16.85;7.05;;;4.80;62.90;;;;;;5021311;28;20030;-58
2022/02/01 08:40:40;;;;;;;14.98;10.30;;;4.80;63.00;;;;;;5024871;28;20635;-59
2022/02/01 08:43:06;;;;;;;14.95;8.43;;;4.80;63.00;;;;;;5022283;28;20060;-60
2022/02/01 08:45:31;;;;;;;17.33;8.30;;;4.80;63.00;;;;;;5016706;28;20625;-59
2022/02/01 08:47:58;;;;;;;16.95;11.23;;;4.80;63.30;;;;;;5014956;28;20049;-59
2022/02/01 08:50:29;;;;;;;20.83;11.68;;;4.80;63.30;;;;;;5018086;28;22497;-60
2022/02/01 08:53:09;;;;;;;22.25;9.40;;;4.90;63.00;;;;;;5028772;28;20043;-60
2022/02/01 08:55:49;;;;;;;18.63;11.85;;;4.90;62.90;;;;;;5027077;28;20079;-60
2022/02/01 08:58:15;;;;;;;14.57;10.30;;;4.90;62.90;;;;;;5022672;28;20554;-60
2022/02/01 09:00:40;;;;;;;13.27;7.60;;;5.00;62.40;;;;;;5024593;28;20112;-60
2022/02/01 09:03:07;;;;;;;11.68;6.63;;;5.00;62.50;;;;;;5027508;28;20085;-59
2022/02/01 09:05:33;;;;;;;10.88;5.60;;;5.00;62.60;;;;;;5023926;28;20020;-61
2022/02/01 09:08:01;;;;;;;9.85;5.70;;;5.00;62.60;;;;;;5029777;28;20091;-58
2022/02/01 09:10:30;;;;;;;10.35;6.53;;;5.00;62.80;;;;;;5028302;28;20071;-58
2022/02/01 09:12:56;;;;;;;9.65;6.40;;;5.00;62.50;;;;;;5018290;28;20032;-60
2022/02/01 09:15:24;;;;;;;10.25;4.57;;;5.10;62.20;;;;;;5025207;28;20045;-58
2022/02/01 09:17:51;;;;;;;9.80;5.78;;;5.10;62.00;;;;;;5021751;28;20121;-60
2022/02/01 09:20:17;;;;;;;9.05;5.28;;;5.10;62.00;;;;;;5021659;28;20029;-60
2022/02/01 09:22:43;;;;;;;8.35;5.13;;;5.10;62.70;;;;;;5023877;28;20060;-58
2022/02/01 09:25:10;;;;;;;9.88;5.50;;;5.10;62.20;;;;;;5022689;28;20055;-60
2022/02/01 09:27:36;;;;;;;9.82;5.60;;;5.10;62.20;;;;;;5021464;28;20028;-59
2022/02/01 09:30:03;;;;;;;10.13;5.38;;;5.20;62.10;;;;;;5031437;28;20079;-58
2022/02/01 09:32:29;;;;;;;9.73;6.22;;;5.20;62.10;;;;;;5029336;28;20033;-60
2022/02/01 09:34:55;;;;;;;12.15;6.25;;;5.20;61.80;;;;;;5028832;28;20091;-60
2022/02/01 09:37:21;;;;;;;11.05;5.70;;;5.30;61.80;;;;;;5027864;28;20515;-61
2022/02/01 09:39:47;;;;;;;8.73;5.65;;;5.30;61.90;;;;;;5026208;28;20770;-60
2022/02/01 09:42:12;;;;;;;8.88;5.53;;;5.30;61.80;;;;;;5032348;28;20033;-60
2022/02/01 09:44:38;;;;;;;11.43;6.22;;;5.30;61.80;;;;;;5032351;28;20044;-62
2022/02/01 09:47:04;;;;;;;12.05;5.80;;;5.40;61.80;;;;;;5029797;28;20052;-61
2022/02/01 09:49:30;;;;;;;9.90;5.43;;;5.40;61.60;;;;;;5029948;28;20037;-59
2022/02/01 09:51:58;;;;;;;8.60;4.97;;;5.40;61.40;;;;;;5033095;28;20103;-60
2022/02/01 09:54:26;;;;;;;9.73;5.40;;;5.50;61.30;;;;;;5030751;28;20039;-60
2022/02/01 09:56:53;;;;;;;8.43;4.45;;;5.60;61.10;;;;;;5023987;28;20037;-60
2022/02/01 09:59:31;;;;;;;9.20;5.15;;;5.60;60.90;;;;;;5027200;28;20033;-59
2022/02/01 10:02:08;;;;;;;8.07;5.10;;;5.60;60.90;;;;;;5029219;28;20064;-61
2022/02/01 10:04:34;;;;;;;8.40;5.43;;;5.60;60.90;;;;;;5027951;28;20033;-60
2022/02/01 10:07:06;;;;;;;5.32;4.05;;;5.60;60.70;;;;;;5026851;28;20552;-61
2022/02/01 10:09:31;;;;;;;7.68;5.18;;;5.60;60.60;;;;;;5027871;28;20056;-60
2022/02/01 10:11:57;;;;;;;7.15;4.57;;;5.60;60.50;;;;;;5030624;28;20116;-60
2022/02/01 10:14:29;;;;;;;6.57;4.30;;;5.60;60.30;;;;;;5028059;28;20116;-60
2022/02/01 10:16:58;;;;;;;6.38;4.22;;;5.60;60.00;;;;;;5023997;28;20040;-60
2022/02/01 10:19:24;;;;;;;7.78;4.65;;;5.60;60.00;;;;;;5024778;28;20041;-59
2022/02/01 10:22:02;;;;;;;9.55;4.70;;;5.60;60.20;;;;;;5024852;28;20484;-60
2022/02/01 10:24:40;;;;;;;8.57;5.32;;;5.60;60.20;;;;;;5029785;28;20144;-60
2022/02/01 10:27:14;;;;;;;8.73;4.15;;;5.70;60.10;;;;;;5021976;28;20025;-59
2022/02/01 10:30:02;;;;;;;9.25;4.47;;;5.70;59.80;;;;;;5018372;28;20033;-60
2022/02/01 10:32:46;;;;;;;6.38;4.38;;;5.80;59.60;;;;;;5026386;28;20120;-58
2022/02/01 10:38:05;;;;;;;7.75;4.18;;;5.90;59.10;;;;;;5017245;28;20029;-60
2022/02/01 10:40:41;;;;;;;6.85;4.60;;;5.90;59.10;;;;;;5022633;28;20488;-60
2022/02/01 10:43:20;;;;;;;7.43;4.55;;;5.80;58.10;;;;;;5021211;28;20025;-59
2022/02/01 10:45:47;;;;;;;5.45;3.60;;;5.80;58.20;;;;;;5012156;28;20086;-59
2022/02/01 10:48:25;;;;;;;5.28;3.33;;;5.70;58.30;;;;;;5022928;28;20039;-58
2022/02/01 10:50:59;;;;;;;5.97;3.90;;;5.70;58.40;;;;;;5017133;28;20066;-60
2022/02/01 10:53:25;;;;;;;10.05;4.43;;;5.70;58.40;;;;;;5002118;28;20166;-61
2022/02/01 10:55:51;;;;;;;7.05;4.03;;;5.80;58.70;;;;;;5021923;28;20049;-61
2022/02/01 10:58:18;;;;;;;6.75;4.32;;;5.80;58.40;;;;;;5039008;28;20052;-60
2022/02/01 11:00:46;;;;;;;8.68;4.22;;;5.90;58.30;;;;;;5024192;28;20055;-60
2022/02/01 11:03:13;;;;;;;9.02;4.60;;;5.90;58.10;;;;;;5029928;28;20028;-59
2022/02/01 11:05:48;;;;;;;8.52;5.65;;;6.00;57.70;;;;;;5023346;28;20064;-59
2022/02/01 11:08:16;;;;;;;6.65;4.65;;;6.00;57.60;;;;;;5024307;28;20021;-56
2022/02/01 11:10:47;;;;;;;7.93;4.88;;;6.10;57.60;;;;;;5027340;28;20037;-57
2022/02/01 11:13:13;;;;;;;6.50;4.03;;;6.20;57.40;;;;;;5020325;28;20029;-58
2022/02/01 11:15:41;;;;;;;5.70;3.67;;;6.20;56.70;;;;;;5034666;28;20040;-57
2022/02/01 11:18:12;;;;;;;8.02;4.20;;;6.20;56.70;;;;;;5037805;28;20935;-58
2022/02/01 11:20:38;;;;;;;10.43;5.93;;;6.20;56.90;;;;;;5038518;28;20120;-59
2022/02/01 11:23:07;;;;;;;9.07;4.80;;;6.20;56.80;;;;;;5042940;28;20021;-59
2022/02/01 11:25:46;;;;;;;9.60;4.80;;;6.20;57.40;;;;;;5041116;28;20035;-60
2022/02/01 11:31:01;;;;;;;4.20;3.35;;;6.30;56.30;;;;;;5031331;28;20170;-59
2022/02/01 11:33:39;;;;;;;7.32;4.30;;;6.30;56.40;;;;;;5028312;28;20025;-59
2022/02/01 11:36:08;;;;;;;8.50;4.28;;;6.40;56.40;;;;;;5033242;28;20043;-59
2022/02/01 11:38:33;;;;;;;6.90;4.13;;;6.40;56.40;;;;;;5030691;28;20439;-59
2022/02/01 11:41:04;;;;;;;7.05;4.60;;;6.50;56.30;;;;;;5029424;28;20037;-59
2022/02/01 11:43:30;;;;;;;8.25;4.40;;;6.50;55.80;;;;;;5030105;28;20064;-57
2022/02/01 11:45:57;;;;;;;8.93;4.72;;;6.60;55.70;;;;;;5030725;28;20075;-60
2022/02/01 11:48:24;;;;;;;8.93;4.97;;;6.60;56.00;;;;;;5033445;28;20720;-59
2022/02/01 11:50:53;;;;;;;5.65;4.07;;;6.70;55.60;;;;;;5024629;28;20028;-60
2022/02/01 11:53:25;;;;;;;5.25;3.75;;;6.70;56.20;;;;;;5031741;28;20036;-60
2022/02/01 11:55:52;;;;;;;;;;;6.80;55.40;;;;;;5035507;28;20044;-60
2022/02/01 11:58:31;;;;;;;5.13;2.92;;;6.70;53.80;;;;;;5032611;28;19917;-60
2022/02/01 12:00:58;;;;;;;9.63;3.78;;;6.70;54.30;;;;;;5034694;28;20036;-60
2022/02/01 12:03:31;;;;;;;5.63;3.47;;;6.60;54.10;;;;;;5029699;28;20567;-60
2022/02/01 12:06:04;;;;;;;5.22;3.60;;;6.60;54.10;;;;;;5023145;28;20075;-59
2022/02/01 12:08:32;;;;;;;5.38;3.17;;;6.50;53.70;;;;;;5031496;28;20874;-58
2022/02/01 12:11:02;;;;;;;8.70;3.28;;;6.50;53.80;;;;;;5030513;28;20032;-58
2022/02/01 12:13:29;;;;;;;7.57;4.38;;;6.40;53.60;;;;;;5024882;28;20029;-60
2022/02/01 12:15:59;;;;;;;5.53;3.90;;;6.40;54.00;;;;;;5034675;28;20025;-60
2022/02/01 12:18:45;;;;;;;8.60;4.00;;;6.30;53.10;;;;;;5031846;28;20741;-60
2022/02/01 12:21:28;;;;;;;6.57;3.45;;;6.30;53.40;;;;;;5032284;28;20029;-61
2022/02/01 12:23:57;;;;;;;4.72;3.55;;;6.20;53.40;;;;;;5032594;28;20112;-60
2022/02/01 12:26:27;;;;;;;9.48;3.92;;;6.20;53.20;;;;;;5028246;28;20419;-60
2022/02/01 12:28:56;;;;;;;5.57;2.97;;;6.20;52.90;;;;;;5013616;28;20040;-60
2022/02/01 12:31:24;;;;;;;4.90;3.10;;;6.20;53.10;;;;;;5027932;28;20080;-61
2022/02/01 12:33:53;;;;;;;5.45;3.67;;;6.10;52.90;;;;;;5024908;28;22774;-60
2022/02/01 12:36:25;;;;;;;6.03;3.40;;;6.00;53.10;;;;;;5028008;28;20466;-61
2022/02/01 12:38:59;;;;;;;6.05;3.80;;;6.00;53.30;;;;;;5028441;28;20048;-60
2022/02/01 12:41:30;;;;;;;4.32;3.05;;;6.00;53.30;;;;;;5028531;28;20483;-61
2022/02/01 12:46:44;;;;;;;6.10;3.58;;;6.00;53.10;;;;;;5017745;28;20528;-61
2022/02/01 12:49:09;;;;;;;4.88;3.30;;;6.00;53.20;;;;;;5009421;28;20491;-61
2022/02/01 12:51:49;;;;;;;6.53;4.50;;;6.00;53.20;;;;;;5008974;28;20041;-62
2022/02/01 12:54:21;;;;;;;4.38;3.08;;;6.00;52.80;;;;;;5021838;28;20041;-60
2022/02/01 12:56:48;;;;;;;6.63;3.78;;;5.90;52.90;;;;;;5025912;28;20485;-61
2022/02/01 12:59:14;;;;;;;7.50;4.05;;;5.90;53.00;;;;;;5023586;28;20466;-62
2022/02/01 13:01:40;;;;;;;6.97;3.92;;;5.90;53.10;;;;;;5039199;28;20119;-60
2022/02/01 13:04:07;;;;;;;3.53;3.10;;;6.00;52.50;;;;;;5023827;28;20480;-61
2022/02/01 13:06:38;;;;;;;4.70;3.13;;;5.90;52.10;;;;;;5028709;28;20029;-61
2022/02/01 13:14:47;;;;;;;9.18;4.72;;;5.60;52.30;;;;;;5027578;28;20409;-61
2022/02/01 13:20:12;;;;;;;9.70;4.03;;;5.50;52.40;;;;;;5026682;28;20102;-62
2022/02/01 13:22:50;;;;;;;6.15;3.78;;;5.40;52.40;;;;;;5022822;28;20752;-60
2022/02/01 13:25:17;;;;;;;5.25;3.15;;;5.40;52.60;;;;;;5025622;28;20807;-61
2022/02/01 13:27:42;;;;;;;5.78;3.60;;;5.40;52.30;;;;;;5024111;28;20056;-60
2022/02/01 13:30:10;;;;;;;4.38;3.25;;;5.30;52.30;;;;;;5014026;28;20650;-62
2022/02/01 13:32:38;;;;;;;5.90;3.72;;;5.20;52.30;;;;;;5024120;28;20033;-60
2022/02/01 13:35:10;;;;;;;4.68;3.08;;;5.20;52.50;;;;;;5024117;28;20029;-60
2022/02/01 13:37:43;;;;;;;4.20;3.15;;;5.20;52.60;;;;;;5022688;28;20034;-61
2022/02/01 13:40:10;;;;;;;5.55;3.30;;;5.10;52.40;;;;;;5025862;28;20029;-62
2022/02/01 13:42:36;;;;;;;5.28;3.08;;;5.10;52.60;;;;;;5028033;28;20032;-60
2022/02/01 13:45:06;;;;;;;4.03;3.00;;;5.10;52.60;;;;;;5023511;28;20025;-58
2022/02/01 13:47:43;;;;;;;5.25;3.45;;;5.10;52.80;;;;;;5027530;28;20539;-59
2022/02/01 13:50:21;;;;;;;7.15;3.20;;;5.10;52.80;;;;;;5031551;28;20020;-59
2022/02/01 13:53:01;;;;;;;6.07;4.30;;;5.10;52.90;;;;;;5031217;28;20025;-60
2022/02/01 13:55:28;;;;;;;6.75;3.67;;;5.10;52.90;;;;;;5016977;28;20025;-60
2022/02/01 13:58:18;;;;;;;5.25;4.45;;;5.10;52.90;;;;;;5022922;28;20029;-61
2022/02/01 14:00:48;;;;;;;5.55;4.00;;;5.10;52.90;;;;;;5019686;28;20044;-62
2022/02/01 14:03:40;;;;;;;5.25;3.95;;;5.10;53.00;;;;;;5019478;28;20138;-62
2022/02/01 14:09:12;;;;;;;7.43;4.18;;;5.10;53.30;;;;;;5013915;28;20045;-60
2022/02/01 14:28:13;;;;;;;5.88;4.30;;;5.20;53.00;;;;;;5030970;28;20610;-62
2022/02/01 14:35:44;;;;;;;9.05;6.43;;;5.30;52.90;;;;;;5029006;28;20035;-61
2022/02/01 14:38:36;;;;;;;12.25;5.32;;;5.30;52.50;;;;;;5050075;28;20036;-61
2022/02/01 14:46:12;;;;;;;9.18;7.30;;;5.20;52.10;;;;;;5033636;28;20037;-59
2022/02/01 14:48:38;;;;;;;12.25;5.45;;;5.20;52.10;;;;;;5032752;28;20115;-60
2022/02/01 14:51:06;;;;;;;13.52;6.88;;;5.10;52.30;;;;;;5026586;28;20112;-61
2022/02/01 14:53:33;;;;;;;12.95;7.75;;;5.10;52.70;;;;;;5035599;28;20488;-61
2022/02/01 14:56:09;;;;;;;11.50;5.90;;;5.10;52.80;;;;;;5035551;28;20120;-63
2022/02/01 15:15:03;;;;;;;14.65;10.23;;;4.80;52.70;;;;;;5032897;28;20812;-59
2022/02/01 15:17:29;;;;;;;13.32;8.00;;;4.80;52.80;;;;;;5031845;28;20107;-60
2022/02/01 15:19:55;;;;;;;16.25;10.45;;;4.80;52.70;;;;;;5028065;28;20067;-59
2022/02/01 15:22:20;;;;;;;19.15;8.85;;;4.80;53.10;;;;;;5024068;28;23381;-61
2022/02/01 15:24:47;;;;;;;14.73;11.45;;;4.80;53.40;;;;;;5027557;28;20029;-60
2022/02/01 15:27:15;;;;;;;17.67;11.85;;;4.80;53.30;;;;;;5033376;28;20052;-61